createdAt,value
2019-03-22T00:02:31.011Z,14.27
2019-03-22T00:05:01.499Z,13.63
2019-03-22T00:07:31.919Z,12.77
2019-03-22T00:10:02.450Z,12.50
2019-03-22T00:12:34.548Z,14.07
2019-03-22T00:15:05.813Z,11.63
2019-03-22T00:17:36.628Z,11.77
2019-03-22T00:20:08.806Z,11.57
2019-03-22T00:22:39.546Z,12.03
2019-03-22T00:25:10.266Z,13.20
2019-03-22T00:27:41.638Z,12.33
2019-03-22T00:30:12.207Z,12.97
2019-03-22T00:32:43.690Z,11.33
2019-03-22T00:35:14.255Z,10.90
2019-03-22T00:37:44.719Z,11.27
2019-03-22T00:40:15.593Z,10.47
2019-03-22T00:42:46.000Z,11.53
2019-03-22T00:45:16.555Z,9.90
2019-03-22T00:47:47.019Z,10.93
2019-03-22T00:50:17.701Z,11.23
2019-03-22T00:52:48.285Z,11.30
2019-03-22T00:55:18.787Z,10.47
2019-03-22T00:57:49.289Z,10.33
2019-03-22T01:00:19.815Z,9.47
2019-03-22T01:02:50.418Z,10.17
2019-03-22T01:05:21.035Z,9.43
2019-03-22T01:07:51.513Z,10.43
2019-03-22T01:10:22.112Z,10.70
2019-03-22T01:12:52.618Z,10.33
2019-03-22T01:15:23.155Z,10.03
2019-03-22T01:17:53.538Z,9.97
2019-03-22T01:20:24.034Z,10.17
2019-03-22T01:22:54.474Z,10.00
2019-03-22T01:25:24.971Z,10.67
2019-03-22T01:27:55.840Z,10.20
2019-03-22T01:30:26.362Z,9.87
2019-03-22T01:32:57.171Z,9.27
2019-03-22T01:35:27.689Z,9.60
2019-03-22T01:37:58.458Z,9.93
2019-03-22T01:40:28.973Z,10.63
2019-03-22T01:42:59.309Z,10.67
2019-03-22T01:45:29.947Z,10.30
2019-03-22T01:48:00.529Z,11.47
2019-03-22T01:50:31.001Z,11.40
2019-03-22T01:53:01.404Z,11.40
2019-03-22T01:55:32.096Z,11.00
2019-03-22T01:58:02.606Z,11.77
2019-03-22T02:00:33.128Z,10.80
2019-03-22T02:03:03.640Z,11.77
2019-03-22T02:05:34.315Z,10.40
2019-03-22T02:08:05.901Z,9.67
2019-03-22T02:10:36.745Z,9.53
2019-03-22T02:13:07.501Z,9.13
2019-03-22T02:15:37.991Z,8.27
2019-03-22T02:18:08.759Z,8.80
2019-03-22T02:20:39.289Z,9.90
2019-03-22T02:23:09.759Z,9.17
2019-03-22T02:25:40.261Z,9.20
2019-03-22T02:28:10.782Z,8.60
2019-03-22T02:30:41.302Z,9.23
2019-03-22T02:33:12.046Z,8.67
2019-03-22T02:35:42.822Z,8.30
2019-03-22T02:38:13.321Z,8.20
2019-03-22T02:40:43.909Z,8.40
2019-03-22T02:43:15.085Z,8.20
2019-03-22T02:45:45.511Z,8.80
2019-03-22T02:48:16.058Z,9.17
2019-03-22T02:50:47.138Z,7.87
2019-03-22T02:53:17.520Z,8.73
2019-03-22T02:55:47.968Z,8.67
2019-03-22T02:58:20.980Z,8.57
2019-03-22T03:00:51.268Z,8.70
2019-03-22T03:03:22.095Z,9.17
2019-03-22T03:05:52.609Z,8.27
2019-03-22T03:08:23.074Z,8.47
2019-03-22T03:10:53.623Z,8.80
2019-03-22T03:13:24.094Z,8.50
2019-03-22T03:15:54.514Z,8.40
2019-03-22T03:18:24.920Z,9.27
2019-03-22T03:20:55.910Z,8.20
2019-03-22T03:23:26.318Z,8.00
2019-03-22T03:25:57.038Z,8.00
2019-03-22T03:28:36.671Z,8.77
2019-03-22T03:31:00.341Z,8.87
2019-03-22T03:33:30.746Z,8.47
2019-03-22T03:36:01.230Z,8.40
2019-03-22T03:38:31.635Z,9.40
2019-03-22T03:41:02.387Z,8.17
2019-03-22T03:43:32.903Z,8.10
2019-03-22T03:46:03.327Z,8.60
2019-03-22T03:48:33.832Z,8.30
2019-03-22T03:51:04.684Z,8.83
2019-03-22T03:53:35.365Z,8.07
2019-03-22T03:56:05.900Z,9.63
2019-03-22T03:58:51.181Z,8.63
2019-03-22T04:01:08.477Z,8.10
2019-03-22T04:03:39.334Z,8.23
2019-03-22T04:06:09.848Z,8.47
2019-03-22T04:08:40.320Z,8.53
2019-03-22T04:11:11.168Z,9.03
2019-03-22T04:13:41.654Z,9.17
2019-03-22T04:16:12.853Z,8.30
2019-03-22T04:18:43.265Z,8.23
2019-03-22T04:21:14.404Z,8.37
2019-03-22T04:23:46.172Z,8.97
2019-03-22T04:26:16.588Z,9.03
2019-03-22T04:28:47.010Z,10.20
2019-03-22T04:31:17.444Z,7.77
2019-03-22T04:33:48.229Z,8.40
2019-03-22T04:36:18.673Z,8.17
2019-03-22T04:38:49.057Z,8.70
2019-03-22T04:41:19.869Z,9.20
2019-03-22T04:43:50.358Z,9.00
2019-03-22T04:46:21.523Z,9.50
2019-03-22T04:48:53.063Z,8.50
2019-03-22T04:51:24.865Z,8.83
2019-03-22T04:54:01.015Z,9.07
2019-03-22T04:56:34.726Z,8.03
2019-03-22T04:59:18.382Z,9.57
2019-03-22T05:01:43.079Z,8.60
2019-03-22T05:04:15.440Z,8.50
2019-03-22T05:06:47.452Z,9.60
2019-03-22T05:09:19.349Z,8.53
2019-03-22T05:11:50.570Z,8.97
2019-03-22T05:14:22.712Z,8.93
2019-03-22T05:16:55.070Z,9.33
2019-03-22T05:19:28.864Z,8.90
2019-03-22T05:22:02.325Z,9.17
2019-03-22T05:24:35.370Z,9.63
2019-03-22T05:27:07.147Z,9.13
2019-03-22T05:29:40.295Z,9.10
2019-03-22T05:32:12.626Z,8.63
2019-03-22T05:34:43.187Z,8.60
2019-03-22T05:37:13.689Z,8.97
2019-03-22T05:39:44.663Z,8.90
2019-03-22T05:42:15.497Z,9.43
2019-03-22T05:44:46.219Z,9.47
2019-03-22T05:47:16.654Z,8.80
2019-03-22T05:49:47.616Z,9.37
2019-03-22T05:52:18.221Z,10.07
2019-03-22T05:54:49.236Z,9.23
2019-03-22T05:57:19.778Z,10.07
2019-03-22T05:59:50.185Z,8.73
2019-03-22T06:02:21.159Z,9.23
2019-03-22T06:04:51.608Z,9.23
2019-03-22T06:07:22.442Z,10.50
2019-03-22T06:09:52.866Z,10.10
2019-03-22T06:12:23.288Z,11.43
2019-03-22T06:14:53.735Z,9.87
2019-03-22T06:17:25.358Z,10.47
2019-03-22T06:19:56.086Z,10.40
2019-03-22T06:22:26.535Z,11.07
2019-03-22T06:24:57.263Z,11.13
2019-03-22T06:27:27.773Z,10.33
2019-03-22T06:29:58.570Z,9.83
2019-03-22T06:32:29.087Z,9.73
2019-03-22T06:34:59.576Z,11.30
2019-03-22T06:37:30.368Z,9.67
2019-03-22T06:40:00.904Z,10.73
2019-03-22T06:42:31.787Z,9.87
2019-03-22T06:45:02.252Z,11.57
2019-03-22T06:47:33.155Z,10.60
2019-03-22T06:50:03.838Z,12.40
2019-03-22T06:52:35.020Z,15.13
2019-03-22T06:55:05.702Z,12.83
2019-03-22T06:57:36.460Z,13.63
2019-03-22T07:00:07.622Z,14.03
2019-03-22T07:02:38.269Z,12.37
2019-03-22T07:05:09.299Z,10.97
2019-03-22T07:07:40.407Z,11.60
2019-03-22T07:10:11.236Z,12.67
2019-03-22T07:12:41.868Z,12.03
2019-03-22T07:15:12.542Z,11.97
2019-03-22T07:17:43.043Z,12.67
2019-03-22T07:20:13.754Z,12.37
2019-03-22T07:22:44.269Z,12.87
2019-03-22T07:25:15.000Z,12.10
2019-03-22T07:27:45.509Z,12.10
2019-03-22T07:30:19.107Z,11.80
2019-03-22T07:32:48.314Z,12.30
2019-03-22T07:35:18.823Z,11.73
2019-03-22T07:37:49.214Z,10.27
2019-03-22T07:40:19.721Z,10.47
2019-03-22T07:42:50.161Z,10.37
2019-03-22T07:45:20.694Z,10.53
2019-03-22T07:47:51.386Z,10.97
2019-03-22T07:50:21.928Z,11.17
2019-03-22T07:52:52.393Z,11.80
2019-03-22T07:55:22.910Z,11.93
2019-03-22T07:57:53.377Z,14.00
2019-03-22T08:00:30.652Z,13.60
2019-03-22T08:02:56.227Z,14.73
2019-03-22T08:05:26.808Z,14.83
2019-03-22T08:07:57.302Z,14.60
2019-03-22T08:10:27.810Z,14.10
2019-03-22T08:12:59.076Z,12.13
2019-03-22T08:15:33.771Z,11.93
2019-03-22T08:18:05.072Z,11.93
2019-03-22T08:20:36.546Z,12.00
2019-03-22T08:23:26.680Z,12.73
2019-03-22T08:25:57.318Z,12.17
2019-03-22T08:28:27.855Z,13.00
2019-03-22T08:30:58.353Z,12.97
2019-03-22T08:33:28.992Z,13.33
2019-03-22T08:36:01.953Z,14.00
2019-03-22T08:38:32.695Z,13.83
2019-03-22T08:41:03.436Z,13.97
2019-03-22T08:43:33.949Z,14.10
2019-03-22T08:46:04.525Z,14.90
2019-03-22T08:48:34.981Z,14.97
2019-03-22T08:51:05.719Z,14.23
2019-03-22T08:53:36.144Z,15.53
2019-03-22T08:56:06.671Z,14.80
2019-03-22T08:58:37.149Z,12.83
2019-03-22T09:01:07.662Z,13.07
2019-03-22T09:03:38.781Z,13.70
2019-03-22T09:06:09.387Z,13.37
2019-03-22T09:08:40.102Z,14.17
2019-03-22T09:11:10.603Z,13.40
2019-03-22T09:13:41.007Z,15.00
2019-03-22T09:16:11.493Z,13.83
2019-03-22T09:18:42.057Z,13.60
2019-03-22T09:21:12.601Z,14.67
2019-03-22T09:23:43.655Z,14.53
2019-03-22T09:26:15.229Z,14.87
2019-03-22T09:28:45.786Z,15.53
2019-03-22T09:31:16.243Z,14.97
2019-03-22T09:33:46.785Z,14.87
2019-03-22T09:36:17.375Z,14.47
2019-03-22T09:38:48.395Z,14.77
2019-03-22T09:41:19.006Z,14.87
2019-03-22T09:43:49.705Z,14.20
2019-03-22T09:46:20.229Z,13.17
2019-03-22T09:48:50.761Z,13.53
2019-03-22T09:51:21.158Z,12.47
2019-03-22T09:53:51.848Z,12.67
2019-03-22T09:56:22.333Z,12.37
2019-03-22T09:58:53.208Z,12.93
2019-03-22T10:01:24.381Z,13.27
2019-03-22T10:03:55.078Z,13.93
2019-03-22T10:06:25.610Z,13.57
2019-03-22T10:08:56.067Z,12.10
2019-03-22T10:11:26.885Z,11.73
2019-03-22T10:13:57.586Z,10.53
2019-03-22T10:16:28.114Z,10.13
2019-03-22T10:18:59.173Z,10.90
2019-03-22T10:21:29.733Z,10.10
2019-03-22T10:24:00.327Z,10.33
2019-03-22T10:26:30.868Z,9.90
2019-03-22T10:29:01.539Z,10.27
2019-03-22T10:31:37.380Z,9.43
2019-03-22T10:34:04.310Z,10.23
2019-03-22T10:36:34.905Z,9.07
2019-03-22T10:39:08.517Z,8.07
2019-03-22T10:41:39.036Z,8.17
2019-03-22T10:44:09.600Z,8.37
2019-03-22T10:46:40.119Z,8.60
2019-03-22T10:49:10.929Z,8.13
2019-03-22T10:51:55.811Z,6.97
2019-03-22T10:54:14.926Z,7.40
2019-03-22T10:56:45.825Z,7.07
2019-03-22T10:59:16.591Z,6.50
2019-03-22T11:02:02.261Z,6.80
2019-03-22T11:04:19.773Z,6.33
2019-03-22T11:06:50.470Z,6.50
2019-03-22T11:09:21.529Z,6.37
2019-03-22T11:11:52.046Z,6.43
2019-03-22T11:14:22.897Z,6.43
2019-03-22T11:16:53.445Z,7.10
2019-03-22T11:19:24.056Z,6.67
2019-03-22T11:21:54.602Z,6.43
2019-03-22T11:24:25.108Z,6.10
2019-03-22T11:26:55.685Z,6.93
2019-03-22T11:29:26.189Z,6.17
2019-03-22T11:31:56.726Z,6.23
2019-03-22T11:34:27.211Z,5.40
2019-03-22T11:36:58.058Z,5.40
2019-03-22T11:39:28.482Z,4.97
2019-03-22T11:41:58.871Z,5.73
2019-03-22T11:44:29.709Z,5.53
2019-03-22T11:47:00.560Z,5.83
2019-03-22T11:49:30.989Z,6.70
2019-03-22T11:52:01.515Z,8.07
2019-03-22T11:54:33.375Z,16.47
2019-03-22T11:57:04.473Z,5.40
2019-03-22T11:59:35.267Z,9.43
2019-03-22T12:02:06.202Z,7.97
2019-03-22T12:04:37.138Z,4.27
2019-03-22T12:07:07.684Z,9.90
2019-03-22T12:09:38.104Z,8.70
2019-03-22T12:12:08.717Z,3.83
2019-03-22T12:14:39.168Z,7.27
2019-03-22T12:17:11.577Z,6.53
2019-03-22T12:19:43.547Z,4.80
2019-03-22T12:22:14.682Z,4.30
2019-03-22T12:24:45.176Z,3.80
2019-03-22T12:27:15.580Z,7.33
2019-03-22T12:29:46.171Z,6.67
2019-03-22T12:32:16.613Z,5.70
2019-03-22T12:34:47.131Z,4.87
2019-03-22T12:37:17.733Z,4.00
2019-03-22T12:39:48.847Z,4.47
2019-03-22T12:42:19.703Z,3.77
2019-03-22T12:44:50.270Z,3.50
2019-03-22T12:47:21.150Z,4.10
2019-03-22T12:49:51.692Z,5.63
2019-03-22T12:52:22.518Z,5.07
2019-03-22T12:54:53.342Z,3.60
2019-03-22T12:57:23.852Z,6.10
2019-03-22T12:59:54.395Z,4.40
2019-03-22T13:02:24.877Z,3.40
2019-03-22T13:04:55.353Z,3.20
2019-03-22T13:07:25.853Z,6.20
2019-03-22T13:09:56.913Z,3.40
2019-03-22T13:12:28.283Z,2.90
2019-03-22T13:14:58.721Z,2.70
2019-03-22T13:17:29.280Z,2.97
2019-03-22T13:19:59.807Z,2.57
2019-03-22T13:22:30.129Z,3.07
2019-03-22T13:25:01.632Z,3.57
2019-03-22T13:27:32.061Z,3.57
2019-03-22T13:30:02.523Z,3.30
2019-03-22T13:32:33.779Z,3.70
2019-03-22T13:35:04.919Z,2.87
2019-03-22T13:37:35.349Z,2.40
2019-03-22T13:40:07.917Z,10.07
2019-03-22T13:42:38.695Z,5.20
2019-03-22T13:45:09.315Z,5.57
2019-03-22T13:47:39.706Z,5.77
2019-03-22T13:50:11.523Z,2.70
2019-03-22T13:52:42.327Z,2.13
2019-03-22T13:55:12.922Z,2.20
2019-03-22T13:57:43.367Z,2.40
2019-03-22T14:00:14.428Z,2.30
2019-03-22T14:02:44.811Z,2.20
2019-03-22T14:05:15.310Z,2.33
2019-03-22T14:07:45.808Z,2.00
2019-03-22T14:10:28.349Z,2.23
2019-03-22T14:12:59.184Z,2.53
2019-03-22T14:15:30.556Z,1.90
2019-03-22T14:18:01.562Z,2.00
2019-03-22T14:20:32.212Z,2.00
2019-03-22T14:23:02.787Z,1.80
2019-03-22T14:25:33.258Z,2.07
2019-03-22T14:28:04.414Z,1.87
2019-03-22T14:30:34.993Z,2.87
2019-03-22T14:33:13.271Z,3.10
2019-03-22T14:35:37.808Z,1.93
2019-03-22T14:38:08.542Z,1.77
2019-03-22T14:40:39.032Z,2.00
2019-03-22T14:43:09.848Z,2.10
2019-03-22T14:45:40.338Z,2.03
2019-03-22T14:48:11.104Z,1.90
2019-03-22T14:50:41.459Z,2.00
2019-03-22T14:53:11.974Z,1.97
2019-03-22T14:55:42.543Z,1.63
2019-03-22T14:58:13.043Z,1.80
2019-03-22T15:00:43.805Z,1.60
2019-03-22T15:03:29.437Z,1.93
2019-03-22T15:05:59.963Z,2.30
2019-03-22T15:08:30.856Z,2.03
2019-03-22T15:11:01.371Z,2.40
2019-03-22T15:13:35.921Z,2.07
2019-03-22T15:16:33.190Z,2.03
2019-03-22T15:19:21.566Z,2.40
2019-03-22T15:22:15.760Z,2.27
2019-03-22T15:25:14.348Z,2.43
2019-03-22T15:28:03.766Z,1.90
2019-03-22T15:30:52.134Z,2.47
2019-03-22T15:33:40.637Z,1.97
2019-03-22T15:36:26.392Z,2.47
2019-03-22T15:39:25.354Z,2.30
2019-03-22T15:41:56.045Z,2.67
2019-03-22T15:44:26.762Z,3.17
2019-03-22T15:46:57.250Z,2.60
2019-03-22T15:49:27.844Z,2.90
2019-03-22T15:52:00.737Z,2.70
2019-03-22T15:54:31.421Z,2.97
2019-03-22T15:57:01.965Z,3.67
2019-03-22T15:59:32.470Z,2.70
2019-03-22T16:02:02.988Z,2.90
2019-03-22T16:04:34.889Z,3.70
2019-03-22T16:07:05.512Z,3.20
2019-03-22T16:09:36.216Z,3.10
2019-03-22T16:12:06.932Z,3.10
2019-03-22T16:14:37.573Z,3.20
2019-03-22T16:17:08.117Z,4.33
2019-03-22T16:19:38.596Z,3.70
2019-03-22T16:22:09.816Z,3.40
2019-03-22T16:24:40.762Z,3.10
2019-03-22T16:27:12.473Z,3.53
2019-03-22T16:29:43.382Z,3.63
2019-03-22T16:32:13.872Z,3.17
2019-03-22T16:34:44.796Z,3.27
2019-03-22T16:37:15.356Z,3.40
2019-03-22T16:39:46.162Z,3.60
2019-03-22T16:42:16.657Z,3.70
2019-03-22T16:44:48.216Z,3.60
2019-03-22T16:47:19.175Z,3.70
2019-03-22T16:49:51.113Z,3.40
2019-03-22T16:52:22.160Z,3.50
2019-03-22T16:54:52.828Z,3.37
2019-03-22T16:57:23.316Z,3.97
2019-03-22T16:59:54.248Z,4.53
2019-03-22T17:02:25.209Z,3.70
2019-03-22T17:04:56.395Z,3.90
2019-03-22T17:07:26.942Z,3.67
2019-03-22T17:09:57.787Z,3.40
2019-03-22T17:12:28.611Z,3.10
2019-03-22T17:14:59.248Z,3.93
2019-03-22T17:17:29.982Z,3.63
2019-03-22T17:20:01.189Z,3.73
2019-03-22T17:22:31.689Z,3.30
2019-03-22T17:25:02.270Z,3.83
2019-03-22T17:27:33.845Z,3.53
2019-03-22T17:30:05.133Z,3.70
2019-03-22T17:32:35.921Z,3.53
2019-03-22T17:35:06.675Z,3.20
2019-03-22T17:37:37.152Z,3.10
2019-03-22T17:40:08.104Z,3.30
2019-03-22T17:42:38.704Z,3.60
2019-03-22T17:45:10.294Z,3.13
2019-03-22T17:47:41.035Z,3.33
2019-03-22T17:50:12.454Z,2.53
2019-03-22T17:52:42.947Z,3.13
2019-03-22T17:55:13.831Z,3.40
2019-03-22T17:57:45.378Z,3.13
2019-03-22T18:00:18.519Z,3.13
2019-03-22T18:02:49.003Z,3.60
2019-03-22T18:05:20.096Z,3.10
2019-03-22T18:07:50.666Z,3.23
2019-03-22T18:10:21.155Z,2.90
2019-03-22T18:12:52.796Z,3.47
2019-03-22T18:15:23.650Z,3.20
2019-03-22T18:17:54.366Z,3.57
2019-03-22T18:20:25.275Z,3.53
2019-03-22T18:22:56.011Z,3.37
2019-03-22T18:25:26.411Z,3.27
2019-03-22T18:27:57.275Z,3.63
2019-03-22T18:30:27.681Z,4.00
2019-03-22T18:32:58.187Z,3.27
2019-03-22T18:35:28.880Z,3.97
2019-03-22T18:38:01.019Z,3.77
2019-03-22T18:40:31.516Z,3.50
2019-03-22T18:43:02.037Z,3.50
2019-03-22T18:45:33.439Z,3.40
2019-03-22T18:48:04.081Z,3.87
2019-03-22T18:50:34.603Z,3.87
2019-03-22T18:53:05.087Z,4.57
2019-03-22T18:55:35.640Z,4.93
2019-03-22T18:58:06.187Z,7.83
2019-03-22T19:00:36.793Z,5.00
2019-03-22T19:03:07.294Z,6.27
2019-03-22T19:05:37.839Z,4.23
2019-03-22T19:08:08.338Z,4.20
2019-03-22T19:10:38.859Z,3.93
2019-03-22T19:13:09.669Z,3.80
2019-03-22T19:15:40.719Z,4.10
2019-03-22T19:18:11.137Z,4.53
2019-03-22T19:20:41.739Z,4.20
2019-03-22T19:23:12.365Z,3.87
2019-03-22T19:25:42.879Z,4.00
2019-03-22T19:28:13.666Z,4.33
2019-03-22T19:30:44.509Z,3.53
2019-03-22T19:33:14.948Z,3.60
2019-03-22T19:35:45.625Z,3.97
2019-03-22T19:38:16.210Z,4.00
2019-03-22T19:40:47.024Z,4.17
2019-03-22T19:43:17.463Z,4.53
2019-03-22T19:45:48.949Z,3.97
2019-03-22T19:48:19.458Z,3.73
2019-03-22T19:50:49.961Z,3.17
2019-03-22T19:53:20.749Z,3.37
2019-03-22T19:55:51.391Z,3.80
2019-03-22T19:58:23.375Z,3.97
2019-03-22T20:00:55.020Z,3.70
2019-03-22T20:03:25.579Z,4.23
2019-03-22T20:05:56.004Z,4.40
2019-03-22T20:08:26.438Z,3.93
2019-03-22T20:10:57.022Z,4.27
2019-03-22T20:13:27.494Z,4.60
2019-03-22T20:15:57.968Z,4.47
2019-03-22T20:18:28.528Z,4.27
2019-03-22T20:20:59.126Z,4.13
2019-03-22T20:23:29.541Z,4.30
2019-03-22T20:25:59.941Z,4.37
2019-03-22T20:28:30.953Z,4.13
2019-03-22T20:31:01.461Z,3.90
2019-03-22T20:33:33.978Z,4.83
2019-03-22T20:36:05.094Z,4.43
2019-03-22T20:38:35.931Z,4.93
2019-03-22T20:41:06.718Z,4.63
2019-03-22T20:43:37.388Z,5.03
2019-03-22T20:46:07.860Z,5.20
2019-03-22T20:48:38.527Z,5.00
2019-03-22T20:51:08.976Z,4.80
2019-03-22T20:53:39.724Z,5.63
2019-03-22T20:56:12.718Z,5.23
2019-03-22T20:58:43.197Z,5.97
2019-03-22T21:01:13.617Z,5.20
2019-03-22T21:03:44.097Z,5.47
2019-03-22T21:06:14.615Z,5.40
2019-03-22T21:08:46.355Z,5.03
2019-03-22T21:11:16.840Z,4.97
2019-03-22T21:13:47.637Z,5.27
2019-03-22T21:16:17.945Z,4.83
2019-03-22T21:18:48.589Z,5.43
2019-03-22T21:21:20.286Z,5.80
2019-03-22T21:23:50.705Z,5.00
2019-03-22T21:26:21.192Z,5.53
2019-03-22T21:28:52.051Z,5.40
2019-03-22T21:31:22.652Z,4.93
2019-03-22T21:33:53.213Z,5.80
2019-03-22T21:36:23.931Z,5.33
2019-03-22T21:38:54.293Z,5.93
2019-03-22T21:41:24.705Z,5.67
2019-03-22T21:43:55.417Z,6.07
2019-03-22T21:46:26.020Z,5.20
2019-03-22T21:48:56.444Z,5.40
2019-03-22T21:51:26.967Z,5.00
2019-03-22T21:53:57.742Z,5.90
2019-03-22T21:56:28.675Z,5.60
2019-03-22T21:58:59.085Z,5.33
2019-03-22T22:01:31.676Z,6.10
2019-03-22T22:04:01.854Z,5.30
2019-03-22T22:06:32.372Z,5.73
2019-03-22T22:09:04.967Z,6.07
2019-03-22T22:11:37.037Z,5.27
2019-03-22T22:14:07.802Z,5.93
2019-03-22T22:16:38.953Z,5.90
2019-03-22T22:19:09.495Z,5.97
2019-03-22T22:21:39.989Z,6.40
2019-03-22T22:24:11.127Z,6.10
2019-03-22T22:26:41.887Z,5.73
2019-03-22T22:29:12.415Z,5.83
2019-03-22T22:31:43.147Z,5.93
2019-03-22T22:34:15.084Z,5.20
2019-03-22T22:36:45.601Z,6.17
2019-03-22T22:39:16.011Z,6.40
2019-03-22T22:41:46.646Z,5.57
2019-03-22T22:44:18.225Z,5.83
2019-03-22T22:46:50.411Z,5.77
2019-03-22T22:49:20.959Z,5.87
2019-03-22T22:51:51.631Z,5.87
2019-03-22T22:54:22.054Z,6.57
2019-03-22T22:56:52.835Z,6.07
2019-03-22T22:59:23.352Z,6.27
2019-03-22T23:01:53.868Z,6.43
2019-03-22T23:04:24.386Z,6.43
2019-03-22T23:06:55.397Z,7.07
2019-03-22T23:09:25.912Z,7.53
2019-03-22T23:11:56.497Z,7.13
2019-03-22T23:14:28.765Z,6.97
2019-03-22T23:16:59.274Z,6.50
2019-03-22T23:19:30.043Z,7.43
2019-03-22T23:22:00.518Z,6.60
2019-03-22T23:24:30.967Z,7.53
2019-03-22T23:27:01.454Z,6.83
2019-03-22T23:29:31.929Z,6.67
2019-03-22T23:32:02.695Z,7.20
2019-03-22T23:34:33.166Z,7.23
2019-03-22T23:37:04.006Z,7.40
2019-03-22T23:39:34.517Z,6.83
2019-03-22T23:42:05.011Z,6.60
2019-03-22T23:44:35.553Z,6.67
2019-03-22T23:47:06.378Z,6.67
2019-03-22T23:49:37.531Z,6.90
2019-03-22T23:52:08.262Z,7.00
2019-03-22T23:54:38.762Z,6.83
2019-03-22T23:57:10.537Z,6.67
2019-03-22T23:59:41.414Z,7.97
